Time;durP1;ratioP1;P1;durP2;ratioP2;P2;SDS_P1;SDS_P2;PMS_P1;PMS_P2;Temp;Humidity;BMP_temperature;BMP_pressure;BME280_temperature;BME280_humidity;BME280_pressure;Samples;Min_cycle;Max_cycle;Signal;HPM_P1;HPM_P2
2021/10/21 00:01:00;;;;;;;58.27;2.80;;;14.60;1.00;;;;;;5071538;28;20475;-74
2021/10/21 00:03:27;;;;;;;58.70;3.67;;;14.60;1.00;;;;;;5071618;28;20476;-74
2021/10/21 00:05:53;;;;;;;58.50;2.70;;;14.60;1.00;;;;;;5071373;28;20538;-74
2021/10/21 00:08:22;;;;;;;58.60;3.00;;;14.60;1.00;;;;;;5070621;28;20488;-74
2021/10/21 00:10:50;;;;;;;58.33;3.10;;;14.60;1.00;;;;;;5071101;28;20555;-74
2021/10/21 00:13:17;;;;;;;59.00;3.10;;;14.60;1.40;;;;;;5071705;28;20536;-74
2021/10/21 00:15:44;;;;;;;59.50;3.73;;;14.60;4.20;;;;;;5071363;28;20489;-74
2021/10/21 00:18:11;;;;;;;58.40;2.80;;;14.60;6.80;;;;;;5071449;28;20534;-74
2021/10/21 00:20:38;;;;;;;58.37;3.20;;;14.60;8.80;;;;;;5071173;28;20508;-74
2021/10/21 00:23:05;;;;;;;58.47;2.90;;;14.50;10.50;;;;;;5071085;28;20544;-74
2021/10/21 00:25:33;;;;;;;58.60;3.00;;;14.50;13.20;;;;;;5071424;28;20537;-74
2021/10/21 00:28:00;;;;;;;58.77;3.80;;;14.50;16.40;;;;;;5071148;28;20487;-74
2021/10/21 00:30:28;;;;;;;58.60;3.10;;;14.50;20.10;;;;;;5050324;28;20477;-74
2021/10/21 00:32:54;;;;;;;58.27;2.70;;;14.50;24.20;;;;;;5051095;28;20555;-74
2021/10/21 00:35:21;;;;;;;58.33;2.80;;;14.40;27.90;;;;;;5051231;28;20539;-73
2021/10/21 00:37:48;;;;;;;61.17;3.40;;;14.40;29.90;;;;;;5051064;28;20476;-73
2021/10/21 00:40:15;;;;;;;58.70;3.37;;;14.40;31.50;;;;;;5051182;28;20473;-73
2021/10/21 00:42:43;;;;;;;58.03;3.30;;;14.40;35.60;;;;;;5050975;28;20824;-73
2021/10/21 00:45:10;;;;;;;58.57;3.23;;;14.40;38.40;;;;;;5051386;28;20532;-74
2021/10/21 00:47:37;;;;;;;58.50;2.70;;;14.30;43.30;;;;;;5050868;28;20483;-74
2021/10/21 00:50:05;;;;;;;58.50;3.03;;;14.30;45.10;;;;;;5050908;28;20553;-74
2021/10/21 00:52:33;;;;;;;58.30;2.80;;;14.30;48.10;;;;;;5051030;28;20543;-74
2021/10/21 00:54:59;;;;;;;57.97;2.70;;;14.30;52.40;;;;;;5051287;28;20494;-74
2021/10/21 00:57:28;;;;;;;58.30;2.60;;;14.30;55.80;;;;;;5050786;28;20450;-73
2021/10/21 00:59:56;;;;;;;58.20;2.60;;;14.20;59.70;;;;;;5050890;28;21063;-73
2021/10/21 01:02:23;;;;;;;59.00;3.10;;;14.20;61.70;;;;;;5064351;28;20534;-73
2021/10/21 01:04:50;;;;;;;58.47;2.70;;;14.20;63.80;;;;;;5071008;28;20454;-73
2021/10/21 01:07:17;;;;;;;58.07;2.70;;;14.20;66.30;;;;;;5070861;28;20474;-73
2021/10/21 01:09:45;;;;;;;58.27;2.80;;;14.20;68.20;;;;;;5071201;28;20494;-73
2021/10/21 01:12:12;;;;;;;57.93;2.70;;;14.20;68.90;;;;;;5070763;28;20868;-73
2021/10/21 01:14:39;;;;;;;58.27;2.90;;;14.20;70.60;;;;;;5071133;28;20479;-73
2021/10/21 01:17:07;;;;;;;58.60;3.33;;;14.20;71.20;;;;;;5070468;28;20451;-73
2021/10/21 01:19:34;;;;;;;58.60;4.50;;;14.10;72.20;;;;;;5073505;28;20474;-73
2021/10/21 01:22:03;;;;;;;58.03;2.70;;;14.20;73.60;;;;;;5074529;28;20454;-73
2021/10/21 01:24:30;;;;;;;58.27;2.97;;;14.20;74.40;;;;;;5074292;28;20543;-73
2021/10/21 01:26:57;;;;;;;58.27;2.60;;;14.20;75.20;;;;;;5074320;28;20478;-73
2021/10/21 01:29:25;;;;;;;59.17;3.43;;;14.20;76.20;;;;;;5074305;28;20574;-73
2021/10/21 01:31:53;;;;;;;58.27;3.20;;;14.20;76.50;;;;;;5074097;28;20457;-72
2021/10/21 01:34:21;;;;;;;57.70;2.60;;;14.20;77.50;;;;;;5072971;28;20545;-72
2021/10/21 01:36:52;;;;;;;58.50;3.13;;;14.20;77.90;;;;;;5073033;28;20538;-73
2021/10/21 01:39:22;;;;;;;58.17;2.63;;;14.20;78.70;;;;;;5074861;28;20471;-72
2021/10/21 01:41:50;;;;;;;57.87;2.57;;;14.20;79.10;;;;;;5074260;28;20543;-72
2021/10/21 01:44:17;;;;;;;58.20;2.70;;;14.20;79.60;;;;;;5074561;28;20501;-73
2021/10/21 01:46:44;;;;;;;58.20;2.60;;;14.20;80.10;;;;;;5074346;28;20539;-73
2021/10/21 01:49:11;;;;;;;58.07;2.90;;;14.20;80.60;;;;;;5074411;28;20570;-72
2021/10/21 01:51:38;;;;;;;58.10;3.07;;;14.20;80.80;;;;;;5074305;28;20449;-72
2021/10/21 01:54:05;;;;;;;58.23;2.70;;;14.20;80.90;;;;;;5074118;28;20491;-72
2021/10/21 01:56:33;;;;;;;58.30;2.80;;;14.20;80.50;;;;;;5073980;28;20474;-73
2021/10/21 01:59:00;;;;;;;58.27;2.50;;;14.20;80.40;;;;;;5074202;28;20923;-72
2021/10/21 02:01:27;;;;;;;58.47;2.93;;;14.20;79.90;;;;;;5074072;28;20526;-72
2021/10/21 02:03:54;;;;;;;58.17;2.60;;;14.20;79.20;;;;;;5074248;28;21217;-72
2021/10/21 02:06:20;;;;;;;58.37;2.70;;;14.20;79.10;;;;;;5073700;28;20451;-72
2021/10/21 02:08:47;;;;;;;57.97;2.60;;;14.20;78.70;;;;;;5073857;28;20665;-72
2021/10/21 02:11:14;;;;;;;58.47;3.00;;;14.20;78.60;;;;;;5074043;28;20817;-73
2021/10/21 02:13:42;;;;;;;58.50;3.00;;;14.30;78.80;;;;;;5073990;28;20535;-72
2021/10/21 02:16:10;;;;;;;58.27;2.67;;;14.30;77.00;;;;;;5073830;28;20443;-72
2021/10/21 02:18:37;;;;;;;58.40;2.80;;;14.30;75.70;;;;;;5073624;28;20479;-73
2021/10/21 02:21:03;;;;;;;58.17;2.70;;;14.30;75.20;;;;;;5073836;28;20819;-72
2021/10/21 02:23:30;;;;;;;58.23;2.60;;;14.30;74.60;;;;;;5073720;28;20453;-71
2021/10/21 02:25:57;;;;;;;58.30;2.60;;;14.30;74.40;;;;;;5073376;28;20830;-72
2021/10/21 02:28:24;;;;;;;58.17;2.60;;;14.30;73.90;;;;;;5073499;28;20495;-71
2021/10/21 02:30:53;;;;;;;58.20;2.60;;;14.30;73.70;;;;;;5072701;28;20453;-72
2021/10/21 02:33:20;;;;;;;58.07;2.70;;;14.30;73.90;;;;;;5073384;28;20467;-72
2021/10/21 02:35:47;;;;;;;58.20;2.70;;;14.30;73.90;;;;;;5073137;28;20455;-72
2021/10/21 02:38:14;;;;;;;58.23;2.80;;;14.30;74.40;;;;;;5073257;28;20547;-72
2021/10/21 02:40:41;;;;;;;58.17;2.50;;;14.30;74.60;;;;;;5073461;28;20570;-72
2021/10/21 02:43:08;;;;;;;58.07;2.50;;;14.30;75.60;;;;;;5073474;28;20476;-73
2021/10/21 02:45:35;;;;;;;58.07;2.50;;;14.30;75.30;;;;;;5072769;28;20466;-72
2021/10/21 02:48:03;;;;;;;57.70;2.70;;;14.30;77.10;;;;;;5073177;28;20522;-73
2021/10/21 02:50:30;;;;;;;58.17;2.67;;;14.40;79.30;;;;;;5072985;28;20476;-73
2021/10/21 02:52:57;;;;;;;58.57;2.70;;;14.40;78.10;;;;;;5073183;28;20447;-74
2021/10/21 02:55:24;;;;;;;58.40;3.10;;;14.40;78.80;;;;;;5072910;28;20543;-74
2021/10/21 02:57:50;;;;;;;58.20;2.87;;;14.50;77.00;;;;;;5073115;28;20475;-73
2021/10/21 03:00:18;;;;;;;58.27;2.80;;;14.60;76.20;;;;;;5073007;28;20494;-74
2021/10/21 03:02:45;;;;;;;57.87;2.67;;;14.60;72.50;;;;;;5073096;28;20793;-72
2021/10/21 03:05:13;;;;;;;58.17;2.80;;;14.60;69.60;;;;;;5072715;28;20901;-74
2021/10/21 03:07:40;;;;;;;57.87;2.77;;;14.70;63.50;;;;;;5072674;28;20538;-74
2021/10/21 03:10:08;;;;;;;58.13;2.70;;;14.80;63.10;;;;;;5072630;28;21014;-73
2021/10/21 03:12:34;;;;;;;58.60;3.00;;;14.90;60.70;;;;;;5072655;28;20449;-73
2021/10/21 03:15:01;;;;;;;57.87;2.63;;;14.90;57.20;;;;;;5072699;28;20542;-73
2021/10/21 03:17:28;;;;;;;58.30;2.73;;;14.90;56.20;;;;;;5072280;28;20451;-74
2021/10/21 03:19:55;;;;;;;58.13;2.60;;;15.00;40.50;;;;;;5072696;28;20472;-74
2021/10/21 03:22:23;;;;;;;57.93;2.53;;;15.10;32.30;;;;;;5072689;28;20483;-73
2021/10/21 03:24:51;;;;;;;57.97;2.50;;;15.10;26.30;;;;;;5072651;28;20458;-74
2021/10/21 03:27:18;;;;;;;57.80;2.47;;;15.10;22.30;;;;;;5072317;28;20455;-72
2021/10/21 03:29:45;;;;;;;58.17;2.60;;;15.20;22.30;;;;;;5072289;28;20582;-74
2021/10/21 03:32:11;;;;;;;58.17;2.57;;;15.20;17.90;;;;;;5072346;28;20474;-73
2021/10/21 03:34:38;;;;;;;57.93;2.60;;;15.10;18.30;;;;;;5072652;28;20536;-74
2021/10/21 03:37:05;;;;;;;58.30;2.63;;;15.10;19.50;;;;;;5072076;28;20540;-73
2021/10/21 03:39:35;;;;;;;58.30;2.63;;;14.90;20.90;;;;;;5072486;28;20503;-71
2021/10/21 03:42:02;;;;;;;57.87;2.77;;;14.90;22.50;;;;;;5072113;28;20828;-71
2021/10/21 03:44:29;;;;;;;57.97;2.70;;;14.90;23.30;;;;;;5072115;28;20525;-71
2021/10/21 03:46:56;;;;;;;58.13;2.63;;;14.80;25.30;;;;;;5071955;28;20448;-71
2021/10/21 03:49:22;;;;;;;58.17;2.80;;;14.70;27.00;;;;;;5075913;28;20522;-72
2021/10/21 03:51:49;;;;;;;58.07;2.53;;;14.60;33.20;;;;;;5077172;28;20457;-72
2021/10/21 03:54:16;;;;;;;58.13;2.80;;;14.60;38.80;;;;;;5077436;28;20451;-72
2021/10/21 03:56:44;;;;;;;58.20;2.67;;;14.50;46.80;;;;;;5077535;28;20485;-71
2021/10/21 03:59:11;;;;;;;58.20;2.60;;;14.40;56.50;;;;;;5078879;28;20490;-72
2021/10/21 04:01:38;;;;;;;58.07;2.70;;;14.40;57.40;;;;;;5079045;28;20455;-72
2021/10/21 04:04:05;;;;;;;58.33;2.80;;;14.40;56.90;;;;;;5076060;28;20471;-71
2021/10/21 04:06:32;;;;;;;58.13;2.60;;;14.50;39.50;;;;;;5071663;28;20856;-71
2021/10/21 04:08:59;;;;;;;58.37;3.00;;;14.50;30.00;;;;;;5071865;28;21098;-71
2021/10/21 04:11:26;;;;;;;58.30;2.57;;;14.40;27.10;;;;;;5071769;28;20540;-72
2021/10/21 04:13:54;;;;;;;58.30;2.70;;;14.40;27.80;;;;;;5071660;28;20479;-71
2021/10/21 04:16:21;;;;;;;58.50;2.97;;;14.40;26.30;;;;;;5071812;28;20458;-71
2021/10/21 04:18:48;;;;;;;58.30;2.70;;;14.30;23.10;;;;;;5071909;28;20495;-72
2021/10/21 04:21:16;;;;;;;57.97;2.60;;;14.30;19.30;;;;;;5071635;28;20444;-72
2021/10/21 04:23:43;;;;;;;58.40;2.80;;;14.30;16.40;;;;;;5071758;28;20447;-72
2021/10/21 04:26:09;;;;;;;58.17;2.67;;;14.30;14.40;;;;;;5071251;28;20456;-72
2021/10/21 04:28:36;;;;;;;58.13;2.80;;;14.30;11.60;;;;;;5071635;28;20502;-72
2021/10/21 04:31:05;;;;;;;58.07;2.70;;;14.30;1.00;;;;;;5071753;28;20885;-73
2021/10/21 04:33:32;;;;;;;58.27;2.90;;;14.40;1.00;;;;;;5071536;28;20465;-72
2021/10/21 04:35:59;;;;;;;57.73;2.60;;;14.30;1.00;;;;;;5071289;28;20455;-73
2021/10/21 04:38:26;;;;;;;57.97;2.50;;;14.30;1.00;;;;;;5071471;28;20531;-73
2021/10/21 04:40:53;;;;;;;58.00;2.50;;;14.30;1.00;;;;;;5071361;28;20483;-73
2021/10/21 04:43:20;;;;;;;57.77;2.70;;;14.30;1.00;;;;;;5072114;28;20480;-73
2021/10/21 04:45:47;;;;;;;58.20;2.60;;;14.30;1.00;;;;;;5071279;28;20457;-73
2021/10/21 04:48:15;;;;;;;57.87;2.60;;;14.30;1.00;;;;;;5071275;28;20963;-73
2021/10/21 04:50:42;;;;;;;58.27;2.57;;;14.20;1.00;;;;;;5071376;28;20556;-73
2021/10/21 04:53:09;;;;;;;58.00;2.60;;;14.20;1.00;;;;;;5071727;28;20441;-73
2021/10/21 04:55:36;;;;;;;58.10;2.47;;;14.20;1.00;;;;;;5074846;28;20578;-73
2021/10/21 04:58:03;;;;;;;58.00;2.53;;;14.20;1.00;;;;;;5075503;28;20629;-73
2021/10/21 05:00:30;;;;;;;57.97;2.50;;;14.10;1.00;;;;;;5075328;28;20461;-73
2021/10/21 05:02:58;;;;;;;57.87;2.60;;;14.00;1.00;;;;;;5075470;28;20530;-73
2021/10/21 05:05:26;;;;;;;58.27;2.50;;;13.90;1.00;;;;;;5074958;28;20440;-73
2021/10/21 05:07:53;;;;;;;58.20;2.53;;;13.70;1.00;;;;;;5074944;28;20450;-74
2021/10/21 05:10:20;;;;;;;57.77;2.50;;;13.60;1.00;;;;;;5075066;28;21006;-73
2021/10/21 05:12:46;;;;;;;58.10;2.47;;;13.50;1.00;;;;;;5075218;28;20538;-72
2021/10/21 05:15:13;;;;;;;58.17;2.90;;;13.40;1.00;;;;;;5075112;28;20533;-72
2021/10/21 05:17:40;;;;;;;58.03;2.60;;;13.40;1.00;;;;;;5074683;28;20525;-72
2021/10/21 05:20:08;;;;;;;58.03;2.70;;;13.30;1.00;;;;;;5075075;28;20914;-72
2021/10/21 05:22:36;;;;;;;57.97;2.43;;;13.30;1.00;;;;;;5074832;28;20538;-72
2021/10/21 05:25:03;;;;;;;58.10;2.60;;;13.30;1.00;;;;;;5074868;28;21004;-71
2021/10/21 05:27:30;;;;;;;58.07;2.40;;;13.20;1.00;;;;;;5074555;28;20538;-70
2021/10/21 05:29:57;;;;;;;58.40;2.60;;;13.20;1.00;;;;;;5074769;28;20582;-71
2021/10/21 05:32:24;;;;;;;57.97;2.50;;;13.00;1.00;;;;;;5074487;28;20489;-72
2021/10/21 05:34:51;;;;;;;57.87;2.40;;;13.10;1.00;;;;;;5072944;28;20568;-72
2021/10/21 05:37:18;;;;;;;57.87;2.60;;;13.10;1.00;;;;;;5074185;28;20457;-72
2021/10/21 05:39:46;;;;;;;57.83;2.50;;;13.20;1.00;;;;;;5074724;28;20466;-72
2021/10/21 05:42:13;;;;;;;58.00;2.53;;;13.30;1.00;;;;;;5074543;28;20451;-72
2021/10/21 05:44:40;;;;;;;57.97;2.47;;;13.10;1.00;;;;;;5074464;28;20843;-71
2021/10/21 05:47:07;;;;;;;57.67;2.63;;;13.00;1.00;;;;;;5074017;28;20451;-71
2021/10/21 05:49:34;;;;;;;58.60;3.43;;;13.00;1.00;;;;;;5074415;28;20489;-71
2021/10/21 05:52:01;;;;;;;58.07;2.70;;;12.90;1.00;;;;;;5074516;28;20476;-72
2021/10/21 05:54:28;;;;;;;58.00;2.67;;;12.80;1.00;;;;;;5074367;28;20530;-71
2021/10/21 05:56:56;;;;;;;58.07;2.60;;;12.70;1.00;;;;;;5074075;28;20478;-72
2021/10/21 05:59:23;;;;;;;58.10;2.60;;;12.70;1.00;;;;;;5074111;28;20995;-72
2021/10/21 06:01:50;;;;;;;57.97;2.70;;;12.60;1.00;;;;;;5073998;28;20529;-71
2021/10/21 06:04:17;;;;;;;58.90;3.10;;;12.60;1.00;;;;;;5073836;28;20478;-71
2021/10/21 06:06:44;;;;;;;58.10;2.80;;;12.70;1.00;;;;;;5073945;28;20451;-72
2021/10/21 06:09:11;;;;;;;58.20;2.70;;;12.80;1.00;;;;;;5073845;28;20479;-72
2021/10/21 06:11:38;;;;;;;58.00;2.60;;;12.70;1.00;;;;;;5073988;28;20542;-72
2021/10/21 06:14:07;;;;;;;57.77;2.60;;;12.80;1.00;;;;;;5073866;28;20546;-72
2021/10/21 06:16:35;;;;;;;58.03;2.60;;;12.80;1.00;;;;;;5073553;28;20472;-72
2021/10/21 06:19:01;;;;;;;58.03;2.60;;;12.90;1.00;;;;;;5073673;28;20467;-72
2021/10/21 06:21:29;;;;;;;58.00;2.63;;;13.00;1.00;;;;;;5073747;28;20458;-72
2021/10/21 06:23:56;;;;;;;57.87;2.60;;;12.90;1.00;;;;;;5073897;28;20451;-72
2021/10/21 06:26:23;;;;;;;58.07;2.80;;;12.90;1.00;;;;;;5073306;28;20523;-72
2021/10/21 06:28:52;;;;;;;58.07;2.60;;;12.70;1.00;;;;;;5073394;28;20498;-72
2021/10/21 06:31:21;;;;;;;57.97;2.60;;;12.70;1.00;;;;;;5073596;28;20447;-71
2021/10/21 06:33:49;;;;;;;57.97;2.50;;;12.70;1.00;;;;;;5073413;28;20948;-72
2021/10/21 06:36:16;;;;;;;58.10;2.70;;;12.90;1.00;;;;;;5073546;28;20538;-72
2021/10/21 06:38:44;;;;;;;58.30;2.70;;;12.70;1.00;;;;;;5073365;28;20870;-72
2021/10/21 06:41:11;;;;;;;58.20;2.57;;;12.80;1.00;;;;;;5073263;28;20451;-72
2021/10/21 06:43:38;;;;;;;58.03;2.70;;;12.80;1.00;;;;;;5073329;28;20888;-71
2021/10/21 06:46:06;;;;;;;57.97;2.73;;;12.60;1.00;;;;;;5073157;28;20526;-72
2021/10/21 06:48:34;;;;;;;58.03;2.50;;;12.60;1.00;;;;;;5073011;28;20939;-72
2021/10/21 06:51:01;;;;;;;57.87;2.37;;;12.80;1.00;;;;;;5072998;28;20901;-72
2021/10/21 06:53:28;;;;;;;57.97;2.60;;;12.80;1.00;;;;;;5073377;28;20447;-72
2021/10/21 06:55:57;;;;;;;57.97;2.40;;;12.60;1.00;;;;;;5072800;28;20483;-72
2021/10/21 06:58:23;;;;;;;57.90;2.53;;;12.70;1.00;;;;;;5072972;28;20820;-72
2021/10/21 07:00:50;;;;;;;58.10;2.40;;;12.90;1.00;;;;;;5073471;28;20531;-73
2021/10/21 07:03:17;;;;;;;57.87;2.40;;;12.90;1.00;;;;;;5073114;28;20475;-73
2021/10/21 07:05:46;;;;;;;57.87;2.40;;;12.80;1.00;;;;;;5072929;28;20451;-74
2021/10/21 07:08:14;;;;;;;58.07;2.40;;;;;;;;;;5073445;28;20815;-72
2021/10/21 07:10:41;;;;;;;57.97;2.37;;;12.70;1.00;;;;;;5073060;28;20487;-74
2021/10/21 07:13:08;;;;;;;57.87;2.40;;;12.80;1.00;;;;;;5072905;28;20472;-73
2021/10/21 07:15:36;;;;;;;58.07;2.70;;;12.90;1.00;;;;;;5072679;28;20537;-72
2021/10/21 07:18:04;;;;;;;57.57;2.40;;;13.20;1.00;;;;;;5072599;28;20451;-72
2021/10/21 07:20:31;;;;;;;58.10;2.50;;;13.30;1.00;;;;;;5072562;28;20919;-72
2021/10/21 07:23:00;;;;;;;57.67;2.40;;;13.30;1.00;;;;;;5072566;28;20447;-72
2021/10/21 07:25:28;;;;;;;57.93;2.37;;;;;;;;;;5072081;28;20869;-74
2021/10/21 07:27:55;;;;;;;58.07;2.60;;;13.50;1.00;;;;;;5072678;28;20491;-73
2021/10/21 07:30:23;;;;;;;57.93;2.43;;;13.50;1.00;;;;;;5072661;28;20493;-74
2021/10/21 07:32:50;;;;;;;58.10;2.50;;;13.50;1.00;;;;;;5072545;28;20855;-72
2021/10/21 07:35:17;;;;;;;58.10;2.50;;;13.50;1.00;;;;;;5072437;28;20728;-72
2021/10/21 07:37:44;;;;;;;58.10;2.73;;;13.40;1.00;;;;;;5072240;28;20454;-73
2021/10/21 07:40:13;;;;;;;57.77;2.50;;;13.30;1.00;;;;;;5072220;28;21063;-72
2021/10/21 07:42:41;;;;;;;57.80;2.40;;;13.80;1.00;;;;;;5072521;28;20534;-74
2021/10/21 07:45:09;;;;;;;57.77;2.40;;;13.80;1.00;;;;;;5072398;28;20443;-72
2021/10/21 07:47:37;;;;;;;57.97;2.40;;;13.80;1.00;;;;;;5072177;28;20443;-73
2021/10/21 07:50:04;;;;;;;57.70;2.30;;;13.80;1.00;;;;;;5072263;28;20574;-73
2021/10/21 07:52:31;;;;;;;58.17;3.07;;;13.90;1.00;;;;;;5072109;28;20530;-72
2021/10/21 07:54:58;;;;;;;57.87;2.40;;;13.90;1.00;;;;;;5072254;28;20478;-73
2021/10/21 07:57:27;;;;;;;58.00;2.40;;;;;;;;;;5072239;28;20534;-74
2021/10/21 07:59:54;;;;;;;57.97;2.57;;;13.80;1.00;;;;;;5072132;28;20831;-66
2021/10/21 08:02:20;;;;;;;57.97;2.50;;;14.00;1.00;;;;;;5071880;28;20443;-66
2021/10/21 08:04:47;;;;;;;57.77;2.50;;;14.10;1.00;;;;;;5071931;28;20482;-66
2021/10/21 08:07:14;;;;;;;57.80;2.70;;;14.10;1.00;;;;;;5071553;28;20463;-66
2021/10/21 08:09:41;;;;;;;57.70;2.50;;;14.00;1.00;;;;;;5071929;28;20570;-68
2021/10/21 08:12:09;;;;;;;57.87;2.40;;;14.00;1.00;;;;;;5071941;28;20447;-69
2021/10/21 08:14:37;;;;;;;57.67;2.40;;;14.00;1.00;;;;;;5071954;28;20443;-70
2021/10/21 08:17:04;;;;;;;58.20;3.00;;;14.10;1.00;;;;;;5071508;28;20535;-68
2021/10/21 08:19:31;;;;;;;57.47;2.40;;;14.20;1.00;;;;;;5071581;28;20979;-70
2021/10/21 08:21:59;;;;;;;57.70;2.43;;;14.30;1.00;;;;;;5072059;28;20447;-68
2021/10/21 08:24:26;;;;;;;58.03;2.60;;;14.30;1.00;;;;;;5071746;28;20490;-68
2021/10/21 08:26:54;;;;;;;57.77;2.47;;;14.30;1.00;;;;;;5071619;28;20451;-69
2021/10/21 08:29:23;;;;;;;57.73;2.40;;;14.30;1.00;;;;;;5073929;28;21086;-69
2021/10/21 08:31:51;;;;;;;57.87;2.47;;;14.30;1.00;;;;;;5075880;28;20505;-68
2021/10/21 08:34:18;;;;;;;57.87;2.50;;;14.40;1.00;;;;;;5075629;28;20467;-68
2021/10/21 08:36:45;;;;;;;57.57;2.53;;;14.50;1.00;;;;;;5075634;28;20446;-67
2021/10/21 08:39:12;;;;;;;58.93;3.27;;;14.40;1.00;;;;;;5075640;28;20502;-67
2021/10/21 08:41:42;;;;;;;57.80;2.43;;;14.50;1.00;;;;;;5075801;28;20448;-67
2021/10/21 08:44:09;;;;;;;57.87;2.47;;;14.50;1.00;;;;;;5075648;28;20951;-67
2021/10/21 08:46:37;;;;;;;57.70;2.43;;;14.50;1.00;;;;;;5075306;28;20535;-65
2021/10/21 08:49:05;;;;;;;57.87;2.50;;;14.50;1.00;;;;;;5075697;28;20499;-65
2021/10/21 08:51:33;;;;;;;57.77;2.60;;;14.40;1.00;;;;;;5075580;28;20489;-66
2021/10/21 08:54:01;;;;;;;57.73;2.50;;;14.40;1.00;;;;;;5075544;28;20579;-65
2021/10/21 08:56:28;;;;;;;57.97;2.43;;;14.30;1.00;;;;;;5075065;28;20475;-65
2021/10/21 08:58:56;;;;;;;57.67;2.50;;;14.20;1.00;;;;;;5075357;28;20547;-65
2021/10/21 09:01:34;;;;;;;57.77;2.40;;;14.00;1.00;;;;;;5075149;28;20539;-65
2021/10/21 09:04:23;;;;;;;57.90;2.50;;;13.90;1.00;;;;;;5075497;28;20490;-65
2021/10/21 09:09:32;;;;;;;57.80;2.50;;;13.80;1.00;;;;;;5074695;28;20459;-65
2021/10/21 09:12:04;;;;;;;57.90;2.53;;;13.80;1.00;;;;;;5074972;28;20454;-64
2021/10/21 09:14:34;;;;;;;58.20;2.60;;;13.80;1.00;;;;;;5075162;28;20451;-64
2021/10/21 09:17:01;;;;;;;57.93;2.50;;;13.80;1.00;;;;;;5075079;28;20450;-64
2021/10/21 09:19:30;;;;;;;58.00;2.70;;;13.70;1.00;;;;;;5074954;28;20844;-65
2021/10/21 09:21:58;;;;;;;58.00;2.47;;;13.50;1.00;;;;;;5074917;28;20554;-65
2021/10/21 09:24:27;;;;;;;57.93;2.57;;;13.60;1.00;;;;;;5074804;28;20538;-66
2021/10/21 09:27:06;;;;;;;57.70;2.60;;;13.70;1.00;;;;;;5074443;28;20486;-65
2021/10/21 09:29:34;;;;;;;57.77;2.40;;;13.90;1.00;;;;;;5074912;28;20474;-66
2021/10/21 09:32:10;;;;;;;57.87;2.80;;;14.20;1.00;;;;;;5074793;28;20443;-65
2021/10/21 09:34:46;;;;;;;57.63;2.30;;;15.20;1.00;;;;;;5074613;28;20532;-64
2021/10/21 09:37:15;;;;;;;57.87;2.50;;;16.80;1.00;;;;;;5074660;28;20468;-63
2021/10/21 09:39:46;;;;;;;57.63;2.50;;;18.30;1.00;;;;;;5074202;28;20553;-64
2021/10/21 09:42:13;;;;;;;57.87;2.40;;;18.80;1.00;;;;;;5074775;28;20447;-63
2021/10/21 09:44:41;;;;;;;57.80;2.40;;;19.10;1.00;;;;;;5074436;28;20490;-65
2021/10/21 09:47:21;;;;;;;57.40;2.23;;;18.80;1.00;;;;;;5074025;28;20449;-66
2021/10/21 09:49:55;;;;;;;58.00;2.20;;;19.10;1.00;;;;;;5074506;28;20501;-65
2021/10/21 09:52:24;;;;;;;57.50;2.30;;;19.60;1.00;;;;;;5074676;28;20455;-66
2021/10/21 09:54:53;;;;;;;57.50;2.20;;;19.90;1.00;;;;;;5074304;28;20443;-66
2021/10/21 09:57:28;;;;;;;57.20;2.30;;;20.30;1.00;;;;;;5074717;28;20448;-66
2021/10/21 10:00:03;;;;;;;57.63;2.40;;;20.10;1.00;;;;;;5074375;28;20562;-66
2021/10/21 10:02:32;;;;;;;59.60;2.70;;;19.90;1.00;;;;;;5074357;28;20450;-65
2021/10/21 10:05:04;;;;;;;57.47;2.30;;;20.40;1.00;;;;;;5074133;28;20473;-66
2021/10/21 10:07:31;;;;;;;57.20;2.20;;;20.90;1.00;;;;;;5073795;28;20937;-66
2021/10/21 10:10:00;;;;;;;57.30;2.17;;;21.80;1.00;;;;;;5073823;28;20565;-64
2021/10/21 10:12:29;;;;;;;57.53;2.17;;;22.80;1.00;;;;;;5074018;28;20489;-64
2021/10/21 10:14:57;;;;;;;57.77;2.73;;;22.60;1.00;;;;;;5073892;28;20538;-65
2021/10/21 10:17:24;;;;;;;57.87;2.30;;;21.60;1.00;;;;;;5073724;28;20449;-65
2021/10/21 10:19:51;;;;;;;57.43;2.10;;;21.50;1.00;;;;;;5073814;28;20469;-64
2021/10/21 10:22:24;;;;;;;57.60;2.17;;;22.30;1.00;;;;;;5073746;28;20449;-63
2021/10/21 10:24:52;;;;;;;57.70;2.30;;;23.50;1.00;;;;;;5073949;28;20454;-62
2021/10/21 10:27:27;;;;;;;57.50;2.20;;;24.40;1.00;;;;;;5073626;28;20526;-64
2021/10/21 10:29:54;;;;;;;57.40;2.27;;;24.20;1.00;;;;;;5073499;28;21013;-62
2021/10/21 10:32:40;;;;;;;57.60;2.30;;;24.70;1.00;;;;;;5073513;28;20536;-62
2021/10/21 10:35:10;;;;;;;57.80;2.20;;;24.90;1.00;;;;;;5073410;28;20451;-62
2021/10/21 10:37:57;;;;;;;57.70;2.23;;;25.30;1.00;;;;;;5073466;28;20451;-63
2021/10/21 10:40:42;;;;;;;57.63;2.20;;;25.60;1.00;;;;;;5073522;28;20459;-63
2021/10/21 10:43:09;;;;;;;57.67;2.00;;;25.80;1.00;;;;;;5073496;28;20451;-63
2021/10/21 10:45:45;;;;;;;57.47;2.10;;;26.10;1.00;;;;;;5072956;28;20542;-62
2021/10/21 10:48:13;;;;;;;57.60;1.90;;;25.90;99.90;;;;;;5073341;28;20479;-62
2021/10/21 10:50:56;;;;;;;57.57;2.10;;;26.00;99.90;;;;;;5072755;28;20487;-62
2021/10/21 10:53:44;;;;;;;57.47;2.10;;;25.90;99.90;;;;;;5073344;28;20443;-63
2021/10/21 10:56:40;;;;;;;57.27;2.00;;;25.90;99.90;;;;;;5072981;28;20443;-64
2021/10/21 10:59:28;;;;;;;57.67;2.50;;;26.30;99.90;;;;;;5072994;28;20895;-62
2021/10/21 11:01:55;;;;;;;57.57;2.10;;;26.60;99.90;;;;;;5072926;28;20530;-62
2021/10/21 11:05:01;;;;;;;58.23;2.30;;;27.00;99.90;;;;;;5072783;28;20951;-61
2021/10/21 11:07:30;;;;;;;57.60;2.10;;;27.90;99.90;;;;;;5072710;28;20458;-62
2021/10/21 11:10:30;;;;;;;57.50;2.13;;;28.00;99.90;;;;;;5072880;28;20478;-62
2021/10/21 11:12:59;;;;;;;57.47;2.10;;;28.90;99.90;;;;;;5072935;28;20441;-63
2021/10/21 11:15:41;;;;;;;57.37;1.93;;;29.80;99.90;;;;;;5072515;28;20830;-63
2021/10/21 11:18:08;;;;;;;57.43;1.90;;;30.10;99.90;;;;;;5072566;28;20477;-63
2021/10/21 11:20:39;;;;;;;57.60;2.20;;;30.70;99.90;;;;;;5072502;28;20550;-64
2021/10/21 11:23:08;;;;;;;57.23;1.73;;;31.20;99.90;;;;;;5072479;28;20457;-65
2021/10/21 11:25:37;;;;;;;57.30;2.00;;;31.80;99.90;;;;;;5072337;28;20444;-64
2021/10/21 11:28:06;;;;;;;57.20;2.20;;;32.30;99.90;;;;;;5072599;28;20538;-65
2021/10/21 11:30:34;;;;;;;57.37;1.80;;;32.60;99.90;;;;;;5072280;28;20541;-64
2021/10/21 11:33:03;;;;;;;57.23;1.90;;;32.40;99.90;;;;;;5072219;28;20470;-64
2021/10/21 11:35:32;;;;;;;57.30;2.00;;;31.50;99.90;;;;;;5071796;28;20452;-65
2021/10/21 11:38:00;;;;;;;57.13;1.90;;;31.10;99.90;;;;;;5072485;28;20451;-64
2021/10/21 11:40:32;;;;;;;57.03;1.90;;;30.40;99.90;;;;;;5072027;28;20502;-65
2021/10/21 11:43:02;;;;;;;57.73;1.90;;;30.30;99.90;;;;;;5072321;28;20448;-63
2021/10/21 11:45:32;;;;;;;57.60;1.83;;;28.20;99.90;;;;;;5071809;28;20874;-63
2021/10/21 11:48:00;;;;;;;57.43;1.90;;;28.10;99.90;;;;;;5072325;28;20450;-63
2021/10/21 11:50:33;;;;;;;57.37;1.90;;;29.30;99.90;;;;;;5072132;28;20502;-64
2021/10/21 11:53:01;;;;;;;57.27;1.80;;;30.40;99.90;;;;;;5072013;28;20982;-64
2021/10/21 11:55:29;;;;;;;57.17;2.00;;;31.00;99.90;;;;;;5071788;28;20892;-64
2021/10/21 11:57:56;;;;;;;70.20;6.30;;;31.00;99.90;;;;;;5071989;28;20482;-63
2021/10/21 12:00:25;;;;;;;57.57;2.40;;;31.10;99.90;;;;;;5071901;28;20503;-64
2021/10/21 12:02:59;;;;;;;57.27;2.20;;;31.70;99.90;;;;;;5072031;28;20447;-64
2021/10/21 12:05:28;;;;;;;57.30;1.90;;;32.30;99.90;;;;;;5071547;28;20974;-65
2021/10/21 12:07:56;;;;;;;57.23;1.90;;;33.00;99.90;;;;;;5072007;28;20532;-64
2021/10/21 12:10:28;;;;;;;56.83;1.87;;;33.30;99.90;;;;;;5071708;28;20569;-65
2021/10/21 12:12:56;;;;;;;57.07;2.00;;;31.30;99.90;;;;;;5071721;28;20526;-64
2021/10/21 12:15:24;;;;;;;57.50;2.00;;;28.40;99.90;;;;;;5071731;28;20447;-65
2021/10/21 12:17:52;;;;;;;57.27;2.10;;;25.90;99.90;;;;;;5072000;28;20539;-64
2021/10/21 12:20:36;;;;;;;57.27;2.40;;;24.40;99.90;;;;;;5071737;28;20550;-65
2021/10/21 12:23:12;;;;;;;58.00;2.80;;;23.80;99.90;;;;;;5071851;28;20450;-64
2021/10/21 12:25:39;;;;;;;57.57;2.20;;;25.40;99.90;;;;;;5071430;28;20475;-64
2021/10/21 12:28:06;;;;;;;57.70;2.30;;;26.60;99.90;;;;;;5071931;28;20447;-65
2021/10/21 12:30:37;;;;;;;57.57;2.10;;;28.70;99.90;;;;;;5071649;28;20846;-64
2021/10/21 12:33:12;;;;;;;57.50;2.40;;;30.40;99.90;;;;;;5071484;28;20910;-64
2021/10/21 12:35:58;;;;;;;57.37;2.10;;;31.50;99.90;;;;;;5071323;28;20888;-65
2021/10/21 12:38:27;;;;;;;57.40;1.90;;;31.30;99.90;;;;;;5071809;28;20508;-64
2021/10/21 12:40:59;;;;;;;57.60;2.30;;;30.70;99.90;;;;;;5071657;28;20815;-64
2021/10/21 12:43:27;;;;;;;57.47;2.00;;;29.00;99.90;;;;;;5071600;28;20942;-64
2021/10/21 12:45:54;;;;;;;57.60;2.23;;;27.60;99.90;;;;;;5071335;28;20609;-66
2021/10/21 12:48:26;;;;;;;57.87;2.40;;;25.60;99.90;;;;;;5071396;28;20458;-64
2021/10/21 12:51:06;;;;;;;58.30;3.13;;;23.70;99.90;;;;;;5071807;28;20876;-64
2021/10/21 12:53:34;;;;;;;57.70;2.30;;;22.10;99.90;;;;;;5071381;28;20485;-64